^^
Peaceful Hills Weather Station Historical Data
 
Daily Summary for May 06, 2021 Units:  Metric    English   Both
Daily Weekly Monthly Yearly
  High: Low: Average:
Temperature: 27 °C 9.3 °C 17.2 °C
Dew Point: 14.1 °C 6.8 °C 10.1 °C
Humidity: 92% 28.2% 69%
Wind Speed: 14.5km/h 0km/h 3.7km/h
Wind Gust: 33.8km/h - -
Wind- - WSW
Pressure: 1023.6 hPa 1018.8 hPa -
Precipitation: 0 mm    
 
 
Tabular Data for May 06, 2021
Time Temperature Dew Point Pressure Wind Wind Speed Wind Gust Humidity Rainfall Rate (Hourly)
00:04 11.7 °C 9.9 °C 1021.2 hPa Calm     89% 0 mm
00:09 11.6 °C 10 °C 1021.2 hPa Calm     90% 0 mm
00:14 11.6 °C 9.9 °C 1021.6 hPa Calm     90% 0 mm
00:19 11.6 °C 9.9 °C 1021.6 hPa Calm     90% 0 mm
00:24 11.4 °C 9.9 °C 1021.6 hPa Calm     90% 0 mm
00:29 11.4 °C 9.9 °C 1021.6 hPa Calm     90% 0 mm
00:34 11.4 °C 9.9 °C 1021.9 hPa Calm     90% 0 mm
00:39 11.4 °C 9.8 °C 1021.9 hPa Calm     90% 0 mm
00:44 11.4 °C 9.8 °C 1021.9 hPa Calm     90% 0 mm
00:49 11.3 °C 9.9 °C 1021.9 hPa Calm     91% 0 mm
00:54 11.3 °C 9.8 °C 1021.9 hPa Calm     90.4% 0 mm
00:59 11.3 °C 9.8 °C 1021.9 hPa Calm     90.2% 0 mm
01:04 11.3 °C 9.8 °C 1021.9 hPa Calm     90.6% 0 mm
01:09 11.3 °C 9.8 °C 1021.9 hPa Calm     90.4% 0 mm
01:14 11.3 °C 9.9 °C 1021.9 hPa Calm     91% 0 mm
01:18 11.2 °C 9.8 °C 1021.9 hPa Calm     90.8% 0 mm
01:44 10.9 °C 9.6 °C 1021.9 hPa Calm     91% 0 mm
01:49 10.8 °C 9.4 °C 1021.9 hPa Calm     91% 0 mm
01:54 10.8 °C 9.4 °C 1021.9 hPa Calm     91% 0 mm
01:59 10.7 °C 9.3 °C 1022.2 hPa Calm     91% 0 mm
02:04 10.7 °C 9.3 °C 1022.2 hPa Calm     91% 0 mm
02:09 10.6 °C 9.2 °C 1022.2 hPa Calm     91% 0 mm
02:14 10.5 °C 9.1 °C 1022.2 hPa Calm     91% 0 mm
02:19 10.4 °C 9.1 °C 1021.9 hPa Calm     91% 0 mm
02:24 10.4 °C 9.1 °C 1021.9 hPa Calm     91% 0 mm
02:29 10.4 °C 9.1 °C 1021.6 hPa Calm     91% 0 mm
02:34 10.4 °C 9.1 °C 1021.6 hPa Calm     91% 0 mm
02:39 10.4 °C 9.1 °C 1021.2 hPa Calm     91% 0 mm
02:44 10.4 °C 9.1 °C 1020.9 hPa Calm     91% 0 mm
02:49 10.4 °C 9.1 °C 1020.9 hPa Calm     91% 0 mm
02:54 10.4 °C 9 °C 1020.9 hPa Calm     91% 0 mm
03:04 10.3 °C 8.9 °C 1020.9 hPa Calm     91% 0 mm
03:09 10.2 °C 8.8 °C 1020.9 hPa Calm     91% 0 mm
03:14 10.2 °C 8.8 °C 1020.9 hPa Calm     91% 0 mm
03:19 10.1 °C 8.7 °C 1020.9 hPa Calm     91% 0 mm
03:24 10.1 °C 8.7 °C 1020.9 hPa Calm     91% 0 mm
03:29 10.2 °C 8.8 °C 1020.9 hPa NNW 1.9 km/h 6.4 km/h 91% 0 mm
03:34 10.2 °C 8.8 °C 1020.9 hPa Calm   6.4 km/h 91% 0 mm
03:39 10.2 °C 8.8 °C 1020.9 hPa Calm   3.2 km/h 91% 0 mm
03:44 10.2 °C 8.8 °C 1020.9 hPa NNW 0.6 km/h 6.4 km/h 91% 0 mm
03:49 10.1 °C 8.7 °C 1021.2 hPa Calm     91% 0 mm
03:54 10.1 °C 8.7 °C 1021.2 hPa Calm     91% 0 mm
03:59 10.1 °C 8.7 °C 1020.9 hPa Calm     91% 0 mm
04:04 10.1 °C 8.7 °C 1021.2 hPa NNW 1.3 km/h 6.4 km/h 91% 0 mm
04:09 10.1 °C 8.7 °C 1021.2 hPa NNW 1.3 km/h 6.4 km/h 91% 0 mm
04:14 10.1 °C 8.7 °C 1021.6 hPa Calm   3.2 km/h 91% 0 mm
04:19 10.1 °C 8.7 °C 1021.6 hPa Calm     91% 0 mm
04:24 10.1 °C 8.7 °C 1021.2 hPa Calm     91% 0 mm
04:29 10.1 °C 8.7 °C 1021.6 hPa Calm   3.2 km/h 91% 0 mm
04:34 10.1 °C 8.7 °C 1021.2 hPa NNW 1.3 km/h 3.2 km/h 91% 0 mm
04:39 10.1 °C 8.7 °C 1021.6 hPa Calm   3.2 km/h 91% 0 mm
04:44 10.1 °C 8.7 °C 1021.6 hPa Calm     91% 0 mm
04:49 10.1 °C 8.7 °C 1021.6 hPa Calm   3.2 km/h 91% 0 mm
04:54 10.1 °C 8.7 °C 1021.9 hPa Calm   3.2 km/h 91% 0 mm
04:59 10 °C 8.6 °C 1021.9 hPa Calm     91% 0 mm
05:04 10 °C 8.6 °C 1021.9 hPa Calm     91% 0 mm
05:09 9.9 °C 8.5 °C 1021.9 hPa Calm     91% 0 mm
05:14 9.8 °C 8.4 °C 1022.2 hPa Calm     91% 0 mm
05:19 9.8 °C 8.4 °C 1022.2 hPa Calm     91% 0 mm
05:24 9.8 °C 8.4 °C 1022.2 hPa Calm     91% 0 mm
05:29 9.7 °C 8.3 °C 1021.9 hPa Calm     91% 0 mm
05:34 9.7 °C 8.3 °C 1022.2 hPa Calm     91% 0 mm
05:39 9.7 °C 8.3 °C 1022.2 hPa Calm     91% 0 mm
05:44 9.6 °C 8.2 °C 1022.2 hPa Calm     91% 0 mm
05:49 9.6 °C 8.2 °C 1022.2 hPa Calm     91% 0 mm
05:54 9.6 °C 8.2 °C 1022.2 hPa Calm     91% 0 mm
05:59 9.5 °C 8.1 °C 1022.2 hPa Calm     91% 0 mm
06:04 9.5 °C 8.1 °C 1022.2 hPa Calm     91% 0 mm
06:09 9.4 °C 8.1 °C 1022.2 hPa Calm     91% 0 mm
06:14 9.4 °C 8.1 °C 1022.2 hPa Calm     91% 0 mm
06:19 9.4 °C 8 °C 1022.6 hPa Calm     91% 0 mm
06:24 9.3 °C 7.9 °C 1022.6 hPa Calm     91% 0 mm
06:29 9.3 °C 7.9 °C 1022.6 hPa Calm     91% 0 mm
06:34 9.3 °C 7.9 °C 1022.9 hPa Calm     91% 0 mm
06:39 9.3 °C 7.9 °C 1022.9 hPa Calm     91% 0 mm
06:44 9.4 °C 8 °C 1022.9 hPa Calm     91% 0 mm
06:49 9.4 °C 8.1 °C 1022.9 hPa Calm     91% 0 mm
06:54 9.5 °C 8.1 °C 1022.9 hPa Calm     91% 0 mm
07:09 9.8 °C 8.6 °C 1023.2 hPa Calm     92% 0 mm
07:14 9.8 °C 8.5 °C 1023.2 hPa Calm     91.2% 0 mm
07:19 9.9 °C 8.6 °C 1023.2 hPa Calm     91% 0 mm
07:24 10.1 °C 8.8 °C 1023.6 hPa East 0.6 km/h 3.2 km/h 91.8% 0 mm
07:29 10.1 °C 8.9 °C 1023.6 hPa East 0.6 km/h 3.2 km/h 92% 0 mm
07:34 10.2 °C 8.9 °C 1023.6 hPa Calm   3.2 km/h 91.6% 0 mm
07:39 10.3 °C 8.9 °C 1023.6 hPa Calm   3.2 km/h 91% 0 mm
07:44 10.4 °C 9.2 °C 1023.6 hPa SSW 0.6 km/h 3.2 km/h 91.8% 0 mm
07:49 10.6 °C 9.3 °C 1023.6 hPa Calm     91.6% 0 mm
07:54 10.9 °C 9.7 °C 1023.6 hPa SSW 0.6 km/h 3.2 km/h 91.8% 0 mm
07:59 11.2 °C 9.9 °C 1023.6 hPa NNW 0.6 km/h 6.4 km/h 92% 0 mm
08:04 11.5 °C 10.2 °C 1023.6 hPa Calm   6.4 km/h 92% 0 mm
08:09 11.8 °C 10.6 °C 1023.6 hPa Calm   6.4 km/h 92% 0 mm
08:14 12.2 °C 10.9 °C 1023.6 hPa SSW 1.3 km/h 6.4 km/h 92% 0 mm
08:19 12.4 °C 11.1 °C 1023.6 hPa SSW 0.6 km/h 6.4 km/h 91.6% 0 mm
08:24 12.6 °C 11.2 °C 1023.6 hPa SSW 1.3 km/h 6.4 km/h 91% 0 mm
08:29 12.8 °C 11.3 °C 1023.6 hPa Calm   3.2 km/h 91% 0 mm
08:34 13 °C 11.6 °C 1023.6 hPa SSW 2.6 km/h 6.4 km/h 91% 0 mm
08:39 13.3 °C 11.8 °C 1023.6 hPa SSW 1.9 km/h 6.4 km/h 91% 0 mm
08:44 13.7 °C 12.3 °C 1023.6 hPa SSW 3.9 km/h 6.4 km/h 91% 0 mm
08:49 14.1 °C 12.5 °C 1023.6 hPa SSW 5.1 km/h 11.3 km/h 90% 0 mm
08:54 14.4 °C 12.7 °C 1023.2 hPa Calm   11.3 km/h 89% 0 mm
08:59 14.8 °C 13 °C 1023.2 hPa Calm   3.2 km/h 89% 0 mm
09:04 15.3 °C 13.3 °C 1023.2 hPa SSE 0.6 km/h 6.4 km/h 87.6% 0 mm
09:09 16.1 °C 13.5 °C 1023.2 hPa SSE 3.9 km/h 8 km/h 84.8% 0 mm
09:14 16.5 °C 13.6 °C 1023.6 hPa SW 2.6 km/h 8 km/h 82.8% 0 mm
09:19 16.9 °C 13.9 °C 1023.2 hPa ESE 1.9 km/h 6.4 km/h 82.8% 0 mm
09:24 17.3 °C 14.1 °C 1023.2 hPa ESE 0.6 km/h 6.4 km/h 81.4% 0 mm
09:29 17.6 °C 14.1 °C 1023.2 hPa SE 2.6 km/h 6.4 km/h 80.4% 0 mm
09:34 17.6 °C 13.8 °C 1023.2 hPa SW 2.9 km/h 8 km/h 78.4% 0 mm
09:39 17.8 °C 13.6 °C 1023.2 hPa SW 4.8 km/h 8 km/h 76.4% 0 mm
09:44 18.1 °C 13.8 °C 1023.2 hPa SW 2.6 km/h 6.4 km/h 75.8% 0 mm
09:49 18.4 °C 13.7 °C 1023.2 hPa NW 1.9 km/h 8 km/h 74.2% 0 mm
09:54 18.7 °C 13.7 °C 1023.2 hPa NNW 2.6 km/h 8 km/h 72.8% 0 mm
09:59 18.9 °C 12.9 °C 1023.2 hPa SSW 4.8 km/h 11.3 km/h 68.2% 0 mm
10:04 19.4 °C 12.7 °C 1023.2 hPa SSW 3.2 km/h 11.3 km/h 65.4% 0 mm
10:09 19.7 °C 12.8 °C 1023.2 hPa SW 3.2 km/h 11.3 km/h 64.4% 0 mm
10:14 20.1 °C 12.8 °C 1023.2 hPa SSW 4.2 km/h 11.3 km/h 63% 0 mm
10:19 20.4 °C 12.4 °C 1022.9 hPa SSW 7.4 km/h 16.1 km/h 60.4% 0 mm
10:24 20.7 °C 12.2 °C 1022.9 hPa SSW 7.4 km/h 14.5 km/h 58.4% 0 mm
10:29 20.9 °C 12.2 °C 1022.9 hPa South 7.7 km/h 14.5 km/h 57.2% 0 mm
10:34 21.2 °C 12.1 °C 1022.9 hPa SSW 2.6 km/h 14.5 km/h 56.2% 0 mm
10:39 21.3 °C 12.2 °C 1022.9 hPa WSW 3.9 km/h 8 km/h 56.2% 0 mm
10:44 21.4 °C 11.9 °C 1022.9 hPa SSW 7.7 km/h 14.5 km/h 54.8% 0 mm
10:49 21.4 °C 11.7 °C 1022.9 hPa SSW 4.5 km/h 14.5 km/h 54% 0 mm
10:54 21.9 °C 12.8 °C 1022.9 hPa SSW 4.8 km/h 8 km/h 56.4% 0 mm
10:59 22.4 °C 12.3 °C 1022.9 hPa South 5.8 km/h 11.3 km/h 53% 0 mm
11:04 22.7 °C 12.7 °C 1022.9 hPa SSW 4.2 km/h 11.3 km/h 53.4% 0 mm
11:09 22.9 °C 11.7 °C 1022.9 hPa SW 6.1 km/h 11.3 km/h 49% 0 mm
11:14 23 °C 11.6 °C 1022.6 hPa WSW 7.1 km/h 19.3 km/h 48.6% 0 mm
11:19 22.9 °C 11.7 °C 1022.6 hPa WSW 7.1 km/h 19.3 km/h 49.4% 0 mm
11:24 22.8 °C 11.5 °C 1022.6 hPa SW 5.5 km/h 11.3 km/h 48.8% 0 mm
11:29 22.9 °C 11.5 °C 1022.6 hPa West 5.8 km/h 14.5 km/h 48.6% 0 mm
11:34 23.1 °C 11.1 °C 1022.6 hPa WNW 6.1 km/h 14.5 km/h 47% 0 mm
11:39 23.2 °C 10.7 °C 1022.6 hPa NW 8.4 km/h 14.5 km/h 45.2% 0 mm
11:44 23.3 °C 10.4 °C 1022.6 hPa West 4.8 km/h 14.5 km/h 44.4% 0 mm
11:49 23.5 °C 10.9 °C 1022.6 hPa SSW 7.7 km/h 14.5 km/h 45.2% 0 mm
11:54 23.8 °C 10.9 °C 1022.6 hPa West 8.7 km/h 16.1 km/h 44.4% 0 mm
11:59 23.8 °C 10.8 °C 1022.2 hPa NW 7.1 km/h 11.3 km/h 44% 0 mm
12:04 23.8 °C 10.7 °C 1022.2 hPa WSW 7.4 km/h 11.3 km/h 43.8% 0 mm
12:09 24 °C 10.8 °C 1022.2 hPa West 5.6 km/h 14.5 km/h 43.3% 0 mm
12:14 24.1 °C 10.7 °C 1022.2 hPa SW 6.1 km/h 16.1 km/h 42.8% 0 mm
12:19 24.3 °C 11.4 °C 1022.2 hPa WSW 5.1 km/h 11.3 km/h 44.6% 0 mm
12:24 24.4 °C 11.1 °C 1022.2 hPa WSW 10 km/h 16.1 km/h 43.2% 0 mm
12:29 24.6 °C 11.6 °C 1021.9 hPa WSW 5.1 km/h 11.3 km/h 44.2% 0 mm
12:34 24.8 °C 11.8 °C 1021.9 hPa West 10.3 km/h 16.1 km/h 44.4% 0 mm
12:39 24.6 °C 10.8 °C 1021.9 hPa WNW 6.1 km/h 16.1 km/h 42% 0 mm
12:44 24.6 °C 12.2 °C 1021.6 hPa West 5.8 km/h 11.3 km/h 46% 0 mm
12:49 24.8 °C 11.8 °C 1021.6 hPa NNW 5.5 km/h 11.3 km/h 44.4% 0 mm
12:54 24.9 °C 11.6 °C 1021.6 hPa WNW 6.1 km/h 14.5 km/h 43.4% 0 mm
12:59 24.9 °C 10.8 °C 1021.2 hPa NNW 7.1 km/h 14.5 km/h 41.2% 0 mm
13:04 24.9 °C 11.3 °C 1021.2 hPa SSW 5.8 km/h 14.5 km/h 42.6% 0 mm
15:09 26.6 °C 10.3 °C 1019.9 hPa WSW 7.2 km/h 25.7 km/h 36% 0 mm
15:14 26.8 °C 10.6 °C 1019.9 hPa East 4.5 km/h 19.3 km/h 36.2% 0 mm
15:19 27 °C 11.7 °C 1019.9 hPa NNW 4.8 km/h 19.3 km/h 38.6% 0 mm
15:24 27 °C 10.2 °C 1019.9 hPa WNW 10 km/h 33.8 km/h 35% 0 mm
15:29 26.8 °C 9.6 °C 1019.5 hPa WSW 9.7 km/h 22.5 km/h 33.8% 0 mm
15:34 26.8 °C 9.6 °C 1019.5 hPa WNW 10 km/h 19.3 km/h 34% 0 mm
15:39 26.8 °C 10 °C 1019.5 hPa West 6.8 km/h 14.5 km/h 34.8% 0 mm
15:44 26.8 °C 9.2 °C 1019.5 hPa WNW 11.9 km/h 22.5 km/h 33% 0 mm
15:49 26.7 °C 8.8 °C 1019.5 hPa WNW 10.3 km/h 16.1 km/h 32.4% 0 mm
15:54 26.8 °C 8.7 °C 1019.2 hPa WNW 8 km/h 16.1 km/h 32% 0 mm
15:59 26.8 °C 8.1 °C 1019.2 hPa WSW 12.9 km/h 29 km/h 30.8% 0 mm
16:09 26.7 °C 6.8 °C 1019.2 hPa NW 13.8 km/h 29 km/h 28.2% 0 mm
16:14 26.6 °C 8.1 °C 1019.2 hPa NW 10.6 km/h 25.7 km/h 31% 0 mm
16:19 26.8 °C 8.6 °C 1019.2 hPa West 8.4 km/h 16.1 km/h 31.8% 0 mm
16:24 26.9 °C 8.7 °C 1019.2 hPa WNW 10 km/h 19.3 km/h 31.8% 0 mm
16:29 26.6 °C 8.3 °C 1018.8 hPa WNW 10 km/h 22.5 km/h 31.6% 0 mm
16:34 26.6 °C 8.4 °C 1018.8 hPa WNW 9.7 km/h 19.3 km/h 31.8% 0 mm
16:39 26.8 °C 8.8 °C 1018.8 hPa WNW 10 km/h 19.3 km/h 32.2% 0 mm
16:44 26.7 °C 8.4 °C 1018.8 hPa WNW 9.7 km/h 22.5 km/h 31.4% 0 mm
16:49 26.6 °C 8.9 °C 1018.8 hPa WNW 10.6 km/h 22.5 km/h 32.8% 0 mm
16:54 26.5 °C 9 °C 1018.8 hPa West 12.6 km/h 22.5 km/h 33.2% 0 mm
16:59 26.4 °C 8.9 °C 1018.8 hPa WSW 11.3 km/h 29 km/h 33.2% 0 mm
17:04 26.3 °C 9.2 °C 1018.8 hPa West 7.7 km/h 33.8 km/h 34% 0 mm
17:09 26.4 °C 9.5 °C 1018.8 hPa West 8 km/h 16.1 km/h 34.6% 0 mm
17:14 26.3 °C 9.1 °C 1018.8 hPa West 10 km/h 29 km/h 33.6% 0 mm
17:19 26.3 °C 9.3 °C 1018.8 hPa NW 7.4 km/h 29 km/h 34.2% 0 mm
17:24 26.6 °C 10.2 °C 1018.8 hPa West 9.7 km/h 16.1 km/h 35.8% 0 mm
17:29 26.6 °C 9.7 °C 1018.8 hPa WNW 14.5 km/h 25.7 km/h 34.6% 0 mm
17:34 26.4 °C 10.5 °C 1018.8 hPa WSW 7.7 km/h 22.5 km/h 36.8% 0 mm
17:39 26.3 °C 10.3 °C 1018.8 hPa WNW 10.6 km/h 22.5 km/h 36.6% 0 mm
17:44 26.2 °C 10.4 °C 1018.8 hPa WNW 11.6 km/h 29 km/h 37.2% 0 mm
17:49 26.1 °C 10.6 °C 1018.8 hPa WNW 9.7 km/h 29 km/h 37.8% 0 mm
17:54 26.1 °C 10.8 °C 1018.8 hPa West 9.3 km/h 19.3 km/h 38.6% 0 mm
17:59 26.1 °C 10.9 °C 1018.8 hPa WNW 8.7 km/h 16.1 km/h 38.8% 0 mm
18:04 26.1 °C 11.2 °C 1018.8 hPa WSW 6.8 km/h 14.5 km/h 39.6% 0 mm
18:09 25.9 °C 11.3 °C 1018.8 hPa West 7.4 km/h 14.5 km/h 40.2% 0 mm
18:14 25.7 °C 11.3 °C 1018.8 hPa West 9.7 km/h 16.1 km/h 40.6% 0 mm
18:19 25.6 °C 11.6 °C 1018.8 hPa West 7.7 km/h 16.1 km/h 41.6% 0 mm
18:24 25.5 °C 12.1 °C 1018.8 hPa WNW 3.2 km/h 14.5 km/h 43.2% 0 mm
18:29 25.4 °C 12.1 °C 1018.8 hPa WNW 6.1 km/h 14.5 km/h 43.6% 0 mm
18:34 25.3 °C 11.9 °C 1018.8 hPa WNW 6.4 km/h 14.5 km/h 43.2% 0 mm
18:39 25.2 °C 11.7 °C 1018.8 hPa West 8.7 km/h 14.5 km/h 42.8% 0 mm
18:44 25.2 °C 11.4 °C 1018.8 hPa West 5.1 km/h 11.3 km/h 42.2% 0 mm
18:49 25.3 °C 11.7 °C 1018.8 hPa West 4.5 km/h 8 km/h 42.8% 0 mm
18:54 25.4 °C 12 °C 1018.8 hPa WNW 5.1 km/h 11.3 km/h 43.4% 0 mm
18:59 25.3 °C 10.7 °C 1018.8 hPa NW 9 km/h 16.1 km/h 40% 0 mm
19:04 24.8 °C 9.9 °C 1018.8 hPa WNW 10 km/h 19.3 km/h 39% 0 mm
19:09 24.6 °C 8.5 °C 1018.8 hPa WNW 6.1 km/h 19.3 km/h 36% 0 mm
19:14 24.6 °C 8.3 °C 1018.8 hPa West 8 km/h 19.3 km/h 35.6% 0 mm
19:19 24.4 °C 8.8 °C 1019.2 hPa WNW 7.7 km/h 22.5 km/h 37% 0 mm
19:24 24.1 °C 8.4 °C 1019.2 hPa NW 7.7 km/h 22.5 km/h 36.6% 0 mm
Compliments of Weather Underground - 4 mb